Morden, Manitoba

1:51 AM CDT on August 23, 2017 (GMT -0500)
Springfield Pl Morden mb | | Change Station

Elev 974 ft 49.20 °N, 98.11 °W | Updated 24 minutes ago

Clear
Clear
50.3 °F
Feels Like 50.3 °F
N
0.0
Wind Variable Wind from SW

Today
High -- | Low -- °F
--% Chance of Precip.
Yesterday
High -- | Low -- °F
Precip. -- in
Pressure 30.09 in
Visibility 10.0 miles
Clouds Clear
Dew Point 46 °F
Humidity 88%
Rainfall 0.00 in
Snow Depth Not available.
6:36 AM 8:32 PM
Waxing Crescent, 3% visible
METAR K96D 230635Z AUTO 00000KT 10SM CLR 09/09 A3009 RMK AO2
Pressure 30.09 in
Visibility 10.0 miles
Clouds Clear
Dew Point 46 °F
Humidity 88%
Rainfall 0.00 in
Snow Depth Not available.
6:36 AM 8:32 PM
Waxing Crescent, 3% visible
METAR K96D 230635Z AUTO 00000KT 10SM CLR 09/09 A3009 RMK AO2

Get Severe Weather Alerts

Thanks for signing up!

Be on the lookout for a verification email in your inbox.

You'll start receiving the daily forecast at 6 AM.

×

10-Day Weather Forecast

Almanac

Astronomy

Aug. 23, 2017 Rise Set
Actual Time
Civil Twilight
Nautical Twilight
Astronomical Twilight
Moon
Length of Visible Light
Length of Day
Tomorrow will be .
, % of the Moon is Illuminated

Today's Extremes

Country Highs Country Lows

Community

WunderPhotos

Category 6

Welcome to Category 6. This is the collective home for Weather Underground's featured writeups by Dr. Jeff Masters (right), Bob Henson (left), Chris Burt, and other regular contributors.

Nearby

Air Quality

  Air Quality AQ Index Pollutant
Not available.

Snow Depth

Station Depth Elevation

Earthquake Activity

City Distance Mag. Time & Date
Minimum magnitude displayed is 2.5.

Coastal Water Temperatures

Place Temperature

Stations

Nearby Weather Stations

Station Location Temp. Windchill Dew Point Humidity Wind Precip. Elev Updated Type
                   

Watches & Warnings

There are currently no watches in effect.